createdAt,value
2023-10-28T00:00:55.701Z,8.70
2023-10-28T00:03:22.622Z,8.80
2023-10-28T00:05:50.062Z,8.80
2023-10-28T00:08:18.149Z,8.80
2023-10-28T00:10:46.482Z,8.80
2023-10-28T00:13:25.486Z,8.80
2023-10-28T00:15:58.600Z,8.80
2023-10-28T00:18:25.489Z,8.80
2023-10-28T00:20:52.314Z,8.80
2023-10-28T00:23:19.271Z,8.80
2023-10-28T00:25:46.246Z,8.80
2023-10-28T00:28:12.920Z,8.80
2023-10-28T00:30:40.552Z,8.70
2023-10-28T00:33:07.367Z,8.70
2023-10-28T00:35:34.943Z,8.70
2023-10-28T00:38:01.644Z,8.70
2023-10-28T00:40:30.345Z,8.70
2023-10-28T00:42:59.018Z,8.70
2023-10-28T00:45:25.798Z,8.70
2023-10-28T00:47:55.664Z,8.70
2023-10-28T00:50:25.231Z,8.70
2023-10-28T00:52:54.852Z,8.60
2023-10-28T00:55:23.471Z,8.70
2023-10-28T00:57:50.955Z,8.70
2023-10-28T01:00:18.714Z,8.70
2023-10-28T01:02:46.131Z,8.70
2023-10-28T01:05:14.997Z,8.70
2023-10-28T01:07:45.166Z,8.60
2023-10-28T01:10:12.845Z,8.70
2023-10-28T01:12:39.711Z,8.70
2023-10-28T01:15:07.463Z,8.70
2023-10-28T01:17:34.352Z,8.80
2023-10-28T01:20:01.209Z,8.70
2023-10-28T01:22:27.966Z,8.70
2023-10-28T01:24:54.780Z,8.70
2023-10-28T01:27:21.566Z,8.70
2023-10-28T01:29:48.688Z,8.70
2023-10-28T01:32:16.236Z,8.70
2023-10-28T01:35:01.308Z,8.70
2023-10-28T01:37:28.079Z,8.70
2023-10-28T01:39:54.853Z,8.70
2023-10-28T01:42:22.972Z,8.70
2023-10-28T01:44:50.568Z,8.70
2023-10-28T01:47:17.431Z,8.70
2023-10-28T01:49:44.875Z,8.70
2023-10-28T01:52:13.573Z,8.70
2023-10-28T01:54:40.548Z,8.70
2023-10-28T01:57:08.662Z,8.70
2023-10-28T01:59:35.659Z,8.70
2023-10-28T02:02:04.054Z,8.70
2023-10-28T02:04:31.895Z,8.70
2023-10-28T02:06:59.223Z,8.70
2023-10-28T02:09:27.189Z,8.60
2023-10-28T02:11:55.170Z,8.70
2023-10-28T02:14:24.135Z,8.60
2023-10-28T02:16:51.947Z,8.60
2023-10-28T02:19:18.729Z,8.60
2023-10-28T02:21:45.488Z,8.60
2023-10-28T02:24:13.377Z,8.60
2023-10-28T02:26:40.117Z,8.60
2023-10-28T02:29:08.016Z,8.60
2023-10-28T02:31:35.622Z,8.60
2023-10-28T02:34:02.340Z,8.50
2023-10-28T02:36:29.156Z,8.50
2023-10-28T02:38:56.051Z,8.50
2023-10-28T02:41:22.764Z,8.50
2023-10-28T02:43:49.483Z,8.50
2023-10-28T02:46:26.342Z,8.60
2023-10-28T02:48:53.148Z,8.60
2023-10-28T02:51:19.906Z,8.50
2023-10-28T02:53:46.808Z,8.50
2023-10-28T02:56:13.694Z,8.50
2023-10-28T02:58:40.953Z,8.50
2023-10-28T03:01:13.011Z,8.60
2023-10-28T03:03:40.923Z,8.60
2023-10-28T03:06:08.060Z,8.60
2023-10-28T03:08:34.988Z,8.60
2023-10-28T03:11:01.950Z,8.60
2023-10-28T03:13:28.713Z,8.60
2023-10-28T03:15:55.534Z,8.60
2023-10-28T03:18:22.353Z,8.50
2023-10-28T03:20:49.491Z,8.60
2023-10-28T03:23:16.478Z,8.60
2023-10-28T03:25:43.686Z,8.60
2023-10-28T03:28:10.440Z,8.70
2023-10-28T03:30:37.534Z,8.70
2023-10-28T03:33:04.493Z,8.60
2023-10-28T03:35:31.485Z,8.70
2023-10-28T03:37:58.373Z,8.70
2023-10-28T03:40:25.503Z,8.70
2023-10-28T03:42:52.664Z,8.70
2023-10-28T03:45:19.432Z,8.70
2023-10-28T03:47:46.196Z,8.70
2023-10-28T03:50:13.046Z,8.70
2023-10-28T03:52:39.792Z,8.70
2023-10-28T03:55:07.125Z,8.70
2023-10-28T03:57:33.846Z,8.80
2023-10-28T04:00:00.727Z,8.80
2023-10-28T04:02:29.121Z,8.80
2023-10-28T04:04:56.267Z,8.80
2023-10-28T04:07:23.043Z,8.80
2023-10-28T04:09:49.756Z,8.80
2023-10-28T04:12:16.905Z,8.90
2023-10-28T04:14:43.622Z,8.90
2023-10-28T04:17:10.386Z,8.90
2023-10-28T04:19:37.124Z,8.80
2023-10-28T04:22:04.010Z,8.80
2023-10-28T04:24:30.786Z,8.80
2023-10-28T04:26:57.492Z,8.70
2023-10-28T04:29:24.345Z,8.70
2023-10-28T04:31:51.140Z,8.60
2023-10-28T04:34:18.115Z,8.60
2023-10-28T04:36:44.851Z,8.70
2023-10-28T04:39:11.674Z,8.60
2023-10-28T04:41:38.429Z,8.60
2023-10-28T04:44:05.770Z,8.50
2023-10-28T04:46:32.625Z,8.50
2023-10-28T04:48:59.742Z,8.50
2023-10-28T04:51:26.817Z,8.50
2023-10-28T04:53:53.690Z,8.50
2023-10-28T04:56:20.377Z,8.40
2023-10-28T04:58:47.095Z,8.40
2023-10-28T05:01:13.906Z,8.40
2023-10-28T05:03:40.661Z,8.40
2023-10-28T05:06:10.916Z,8.40
2023-10-28T05:08:37.953Z,8.30
2023-10-28T05:11:05.479Z,8.30
2023-10-28T05:13:32.234Z,8.30
2023-10-28T05:15:59.985Z,8.30
2023-10-28T05:18:27.373Z,8.30
2023-10-28T05:20:54.416Z,8.40
2023-10-28T05:23:21.283Z,8.30
2023-10-28T05:25:48.093Z,8.30
2023-10-28T05:28:14.798Z,8.30
2023-10-28T05:30:41.495Z,8.20
2023-10-28T05:33:08.306Z,8.10
2023-10-28T05:35:35.079Z,8.10
2023-10-28T05:38:01.838Z,8.00
2023-10-28T05:40:28.621Z,8.00
2023-10-28T05:42:56.060Z,8.00
2023-10-28T05:45:22.855Z,8.00
2023-10-28T05:47:49.690Z,8.00
2023-10-28T05:50:16.587Z,8.10
2023-10-28T05:52:43.383Z,8.10
2023-10-28T05:55:13.782Z,8.10
2023-10-28T05:57:41.159Z,8.10
2023-10-28T06:00:11.706Z,8.10
2023-10-28T06:02:39.722Z,8.10
2023-10-28T06:05:07.873Z,8.10
2023-10-28T06:07:34.777Z,8.00
2023-10-28T06:10:01.545Z,8.00
2023-10-28T06:12:28.386Z,7.90
2023-10-28T06:14:55.094Z,8.00
2023-10-28T06:17:21.948Z,8.10
2023-10-28T06:19:49.936Z,8.00
2023-10-28T06:22:16.790Z,7.90
2023-10-28T06:24:43.660Z,7.90
2023-10-28T06:27:10.395Z,7.90
2023-10-28T06:29:37.221Z,8.00
2023-10-28T06:32:05.536Z,8.00
2023-10-28T06:34:32.365Z,8.10
2023-10-28T06:36:59.298Z,8.20
2023-10-28T06:39:26.053Z,8.20
2023-10-28T06:41:52.913Z,8.20
2023-10-28T06:44:21.280Z,8.20
2023-10-28T06:46:48.177Z,8.30
2023-10-28T06:49:14.986Z,8.30
2023-10-28T06:51:41.830Z,8.30
2023-10-28T06:54:08.640Z,8.20
2023-10-28T06:56:36.053Z,8.20
2023-10-28T06:59:02.895Z,8.20
2023-10-28T07:01:29.719Z,8.20
2023-10-28T07:03:56.739Z,8.20
2023-10-28T07:06:23.491Z,8.30
2023-10-28T07:08:50.640Z,8.30
2023-10-28T07:11:17.377Z,8.40
2023-10-28T07:13:45.673Z,8.50
2023-10-28T07:16:12.462Z,8.60
2023-10-28T07:18:39.235Z,8.60
2023-10-28T07:21:06.190Z,8.60
2023-10-28T07:23:32.966Z,8.70
2023-10-28T07:26:00.426Z,8.70
2023-10-28T07:28:31.094Z,8.70
2023-10-28T07:30:58.735Z,8.70
2023-10-28T07:33:25.652Z,8.70
2023-10-28T07:35:52.362Z,8.80
2023-10-28T07:38:21.713Z,8.80
2023-10-28T07:40:49.926Z,8.80
2023-10-28T07:43:20.223Z,8.90
2023-10-28T07:45:47.277Z,8.90
2023-10-28T07:48:15.179Z,9.00
2023-10-28T07:50:43.602Z,9.10
2023-10-28T07:53:10.602Z,9.10
2023-10-28T07:55:39.339Z,9.30
2023-10-28T07:58:06.703Z,9.30
2023-10-28T08:00:37.797Z,9.40
2023-10-28T08:03:04.969Z,9.40
2023-10-28T08:05:32.068Z,9.40
2023-10-28T08:07:58.807Z,9.60
2023-10-28T08:10:25.635Z,9.60
2023-10-28T08:12:53.555Z,9.60
2023-10-28T08:15:21.676Z,9.60
2023-10-28T08:17:48.608Z,9.80
2023-10-28T08:20:16.232Z,9.80
2023-10-28T08:22:44.759Z,9.90
2023-10-28T08:25:16.971Z,10.00
2023-10-28T08:27:49.013Z,10.10
2023-10-28T08:30:18.142Z,10.20
2023-10-28T08:32:45.606Z,10.30
2023-10-28T08:35:12.493Z,10.40
2023-10-28T08:37:39.979Z,10.40
2023-10-28T08:40:11.501Z,10.40
2023-10-28T08:42:38.409Z,10.40
2023-10-28T08:45:06.633Z,10.40
2023-10-28T08:47:35.539Z,10.50
2023-10-28T08:50:07.630Z,10.50
2023-10-28T08:52:38.818Z,10.60
2023-10-28T08:55:06.589Z,10.70
2023-10-28T08:57:36.479Z,10.60
2023-10-28T09:00:07.938Z,10.60
2023-10-28T09:02:36.451Z,10.70
2023-10-28T09:05:04.515Z,10.70
2023-10-28T09:07:31.275Z,10.80
2023-10-28T09:09:59.599Z,10.90
2023-10-28T09:12:26.554Z,10.90
2023-10-28T09:14:53.386Z,11.00
2023-10-28T09:17:21.794Z,11.10
2023-10-28T09:19:48.745Z,11.20
2023-10-28T09:22:16.386Z,11.10
2023-10-28T09:24:52.461Z,11.10
2023-10-28T09:27:20.710Z,11.00
2023-10-28T09:29:47.619Z,11.10
2023-10-28T09:32:15.112Z,11.00
2023-10-28T09:34:42.520Z,11.10
2023-10-28T09:37:09.988Z,11.10
2023-10-28T09:39:37.442Z,11.10
2023-10-28T09:42:05.222Z,11.20
2023-10-28T09:44:35.461Z,11.30
2023-10-28T09:47:06.686Z,11.50
2023-10-28T09:49:33.944Z,11.40
2023-10-28T09:52:07.249Z,11.40
2023-10-28T09:54:36.762Z,11.50
2023-10-28T09:57:04.457Z,11.50
2023-10-28T09:59:38.019Z,11.50
2023-10-28T10:02:16.573Z,11.50
2023-10-28T10:04:50.404Z,11.50
2023-10-28T10:07:17.786Z,11.50
2023-10-28T10:09:48.839Z,11.60
2023-10-28T10:12:17.037Z,11.70
2023-10-28T10:14:47.799Z,12.00
2023-10-28T10:17:38.054Z,12.00
2023-10-28T10:20:08.042Z,12.00
2023-10-28T10:22:36.527Z,12.00
2023-10-28T10:25:03.517Z,12.10
2023-10-28T10:27:35.319Z,12.10
2023-10-28T10:30:10.241Z,12.10
2023-10-28T10:32:51.617Z,12.20
2023-10-28T10:35:30.235Z,12.20
2023-10-28T10:38:10.686Z,12.10
2023-10-28T10:40:51.484Z,12.10
2023-10-28T10:43:22.370Z,12.10
2023-10-28T10:48:26.673Z,12.20
2023-10-28T10:50:55.323Z,12.30
2023-10-28T10:53:23.953Z,12.30
2023-10-28T10:55:50.901Z,12.30
2023-10-28T10:58:17.702Z,12.30
2023-10-28T11:00:55.550Z,12.30
2023-10-28T11:03:25.999Z,12.30
2023-10-28T11:05:53.643Z,12.30
2023-10-28T11:09:02.534Z,12.30
2023-10-28T11:11:51.585Z,12.20
2023-10-28T11:14:19.152Z,12.20
2023-10-28T11:16:46.384Z,12.20
2023-10-28T11:19:13.719Z,12.20
2023-10-28T11:21:43.670Z,12.20
2023-10-28T11:24:12.184Z,12.20
2023-10-28T11:26:38.958Z,12.30
2023-10-28T11:29:08.133Z,12.30
2023-10-28T11:31:35.609Z,12.30
2023-10-28T11:34:05.323Z,12.20
2023-10-28T11:36:34.761Z,12.20
2023-10-28T11:39:12.526Z,12.20
2023-10-28T11:41:39.341Z,12.20
2023-10-28T11:44:09.456Z,12.20
2023-10-28T11:46:36.321Z,12.10
2023-10-28T11:49:04.223Z,12.10
2023-10-28T11:51:31.107Z,12.10
2023-10-28T11:53:58.126Z,12.10
2023-10-28T11:56:25.006Z,12.10
2023-10-28T11:58:52.321Z,12.10
2023-10-28T12:01:20.121Z,12.20
2023-10-28T12:03:47.520Z,12.10
2023-10-28T12:06:26.761Z,12.20
2023-10-28T12:08:59.886Z,12.10
2023-10-28T12:11:28.525Z,12.10
2023-10-28T12:13:57.535Z,12.10
2023-10-28T12:16:24.965Z,12.10
2023-10-28T12:18:52.082Z,12.10
2023-10-28T12:21:19.276Z,12.20
2023-10-28T12:23:46.502Z,12.20
2023-10-28T12:26:13.463Z,12.20
2023-10-28T12:28:40.645Z,12.30
2023-10-28T12:31:07.443Z,12.40
2023-10-28T12:33:37.116Z,12.40
2023-10-28T12:36:08.080Z,12.40
2023-10-28T12:38:35.516Z,12.40
2023-10-28T12:41:02.431Z,12.50
2023-10-28T12:43:57.432Z,12.40
2023-10-28T12:46:30.432Z,12.40
2023-10-28T12:48:57.717Z,12.40
2023-10-28T12:51:24.412Z,12.50
2023-10-28T12:53:51.167Z,12.50
2023-10-28T12:56:18.042Z,12.50
2023-10-28T12:58:45.354Z,12.60
2023-10-28T13:01:12.045Z,12.60
2023-10-28T13:03:38.927Z,12.60
2023-10-28T13:06:05.952Z,12.60
2023-10-28T13:08:33.502Z,12.60
2023-10-28T13:11:00.357Z,12.70
2023-10-28T13:13:27.227Z,12.70
2023-10-28T13:15:53.994Z,12.70
2023-10-28T13:18:21.043Z,12.70
2023-10-28T13:20:47.765Z,12.60
2023-10-28T13:23:14.593Z,12.60
2023-10-28T13:25:41.396Z,12.60
2023-10-28T13:28:11.093Z,12.50
2023-10-28T13:30:41.505Z,12.50
2023-10-28T13:33:08.840Z,12.50
2023-10-28T13:35:35.752Z,12.50
2023-10-28T13:38:02.797Z,12.40
2023-10-28T13:40:29.634Z,12.40
2023-10-28T13:42:57.107Z,12.40
2023-10-28T13:45:24.061Z,12.40
2023-10-28T13:47:52.661Z,12.30
2023-10-28T13:50:20.349Z,12.30
2023-10-28T13:52:50.718Z,12.40
2023-10-28T13:55:17.524Z,12.30
2023-10-28T13:57:45.078Z,12.30
2023-10-28T14:00:14.268Z,12.30
2023-10-28T14:02:42.440Z,12.30
2023-10-28T14:05:09.956Z,12.30
2023-10-28T14:07:38.166Z,12.30
2023-10-28T14:10:05.509Z,12.40
2023-10-28T14:12:32.797Z,12.30
2023-10-28T14:15:00.107Z,12.30
2023-10-28T14:17:27.623Z,12.30
2023-10-28T14:19:54.575Z,12.40
2023-10-28T14:22:23.682Z,12.30
2023-10-28T14:24:50.638Z,12.30
2023-10-28T14:27:17.427Z,12.30
2023-10-28T14:29:44.700Z,12.20
2023-10-28T14:32:15.904Z,12.20
2023-10-28T14:34:43.203Z,12.20
2023-10-28T14:37:22.703Z,12.20
2023-10-28T14:39:55.658Z,12.20
2023-10-28T14:42:22.751Z,12.20
2023-10-28T14:44:52.770Z,12.10
2023-10-28T14:47:19.685Z,12.10
2023-10-28T14:49:46.555Z,12.10
2023-10-28T14:52:13.424Z,12.10
2023-10-28T14:54:40.300Z,12.10
2023-10-28T14:57:07.168Z,12.00
2023-10-28T14:59:45.470Z,12.00
2023-10-28T15:02:16.583Z,12.00
2023-10-28T15:04:47.995Z,12.00
2023-10-28T15:07:15.184Z,12.00
2023-10-28T15:09:41.987Z,12.00
2023-10-28T15:12:09.542Z,11.90
2023-10-28T15:14:36.980Z,12.00
2023-10-28T15:17:04.177Z,11.90
2023-10-28T15:19:31.092Z,11.90
2023-10-28T15:21:57.930Z,12.00
2023-10-28T15:24:24.747Z,11.90
2023-10-28T15:26:51.548Z,11.90
2023-10-28T15:29:18.315Z,11.90
2023-10-28T15:31:45.037Z,11.90
2023-10-28T15:34:13.951Z,11.80
2023-10-28T15:36:40.812Z,11.80
2023-10-28T15:39:07.583Z,11.80
2023-10-28T15:41:35.354Z,11.80
2023-10-28T15:44:03.057Z,11.80
2023-10-28T15:46:29.986Z,11.80
2023-10-28T15:48:56.753Z,11.70
2023-10-28T15:51:25.905Z,11.70
2023-10-28T15:53:52.733Z,11.80
2023-10-28T15:56:23.791Z,11.80
2023-10-28T15:58:52.366Z,11.70
2023-10-28T16:01:19.639Z,11.70
2023-10-28T16:03:46.641Z,11.80
2023-10-28T16:06:13.651Z,11.80
2023-10-28T16:08:42.505Z,11.80
2023-10-28T16:11:11.946Z,11.80
2023-10-28T16:13:39.515Z,11.80
2023-10-28T16:16:08.202Z,11.80
2023-10-28T16:18:35.196Z,11.80
2023-10-28T16:21:02.240Z,11.80
2023-10-28T16:23:29.320Z,11.80
2023-10-28T16:25:57.243Z,11.80
2023-10-28T16:28:24.613Z,11.80
2023-10-28T16:30:51.650Z,11.80
2023-10-28T16:33:26.608Z,11.80
2023-10-28T16:35:53.864Z,11.80
2023-10-28T16:38:30.564Z,11.70
2023-10-28T16:40:59.327Z,11.70
2023-10-28T16:43:28.824Z,11.70
2023-10-28T16:46:04.251Z,11.70
2023-10-28T16:48:31.433Z,11.70
2023-10-28T16:51:01.500Z,11.70
2023-10-28T16:53:28.519Z,11.70
2023-10-28T16:56:05.963Z,11.70
2023-10-28T16:58:33.996Z,11.60
2023-10-28T17:01:04.784Z,11.70
2023-10-28T17:03:32.261Z,11.70
2023-10-28T17:05:59.129Z,11.70
2023-10-28T17:08:25.968Z,11.70
2023-10-28T17:10:54.392Z,11.70
2023-10-28T17:13:21.200Z,11.70
2023-10-28T17:15:48.528Z,11.60
2023-10-28T17:18:16.191Z,11.60
2023-10-28T17:20:43.193Z,11.60
2023-10-28T17:23:10.009Z,11.60
2023-10-28T17:25:37.114Z,11.50
2023-10-28T17:28:04.782Z,11.60
2023-10-28T17:30:35.917Z,11.60
2023-10-28T17:33:02.963Z,11.60
2023-10-28T17:35:30.221Z,11.50
2023-10-28T17:37:57.641Z,11.60
2023-10-28T17:40:24.738Z,11.60
2023-10-28T17:42:51.466Z,11.50
2023-10-28T17:45:18.305Z,11.40
2023-10-28T17:47:45.081Z,11.30
2023-10-28T17:50:12.327Z,11.30
2023-10-28T17:52:39.081Z,11.30
2023-10-28T17:55:06.175Z,11.20
2023-10-28T17:57:32.920Z,11.30
2023-10-28T17:59:59.617Z,11.20
2023-10-28T18:02:27.631Z,11.20
2023-10-28T18:04:59.055Z,11.20
2023-10-28T18:07:49.078Z,11.20
2023-10-28T18:10:18.692Z,11.10
2023-10-28T18:12:45.400Z,11.10
2023-10-28T18:15:12.123Z,11.10
2023-10-28T18:17:39.043Z,11.00
2023-10-28T18:20:06.386Z,11.00
2023-10-28T18:22:33.133Z,10.90
2023-10-28T18:24:59.915Z,10.90
2023-10-28T18:27:26.585Z,10.90
2023-10-28T18:29:53.361Z,10.90
2023-10-28T18:32:20.065Z,10.80
2023-10-28T18:34:51.378Z,10.70
2023-10-28T18:37:18.069Z,10.70
2023-10-28T18:39:47.939Z,10.70
2023-10-28T18:42:14.946Z,10.70
2023-10-28T18:44:41.724Z,10.70
2023-10-28T18:47:10.056Z,10.70
2023-10-28T18:49:36.934Z,10.70
2023-10-28T18:52:05.455Z,10.70
2023-10-28T18:54:32.448Z,10.60
2023-10-28T18:56:59.209Z,10.60
2023-10-28T18:59:26.184Z,10.60
2023-10-28T19:01:53.012Z,10.60
2023-10-28T19:04:19.913Z,10.60
2023-10-28T19:06:46.679Z,10.60
2023-10-28T19:09:13.682Z,10.60
2023-10-28T19:11:41.027Z,10.50
2023-10-28T19:14:10.415Z,10.50
2023-10-28T19:16:37.972Z,10.40
2023-10-28T19:19:05.841Z,10.40
2023-10-28T19:21:32.601Z,10.40
2023-10-28T19:23:59.510Z,10.40
2023-10-28T19:26:26.293Z,10.30
2023-10-28T19:28:53.139Z,10.20
2023-10-28T19:31:20.112Z,10.20
2023-10-28T19:33:46.994Z,10.10
2023-10-28T19:36:14.445Z,10.10
2023-10-28T19:38:41.434Z,10.10
2023-10-28T19:41:09.902Z,10.10
2023-10-28T19:43:36.899Z,10.10
2023-10-28T19:46:08.013Z,10.10
2023-10-28T19:48:35.567Z,10.10
2023-10-28T19:51:06.194Z,10.10
2023-10-28T19:53:42.216Z,10.10
2023-10-28T19:56:16.067Z,9.90
2023-10-28T19:58:46.257Z,9.90
2023-10-28T20:01:13.300Z,9.90
2023-10-28T20:03:43.460Z,9.90
2023-10-28T20:06:10.267Z,9.80
2023-10-28T20:08:37.809Z,9.90
2023-10-28T20:11:07.872Z,9.80
2023-10-28T20:13:34.688Z,9.80
2023-10-28T20:16:01.997Z,9.80
2023-10-28T20:18:28.839Z,9.70
2023-10-28T20:20:57.350Z,9.80
2023-10-28T20:23:25.423Z,9.70
2023-10-28T20:25:52.191Z,9.80
2023-10-28T20:28:18.904Z,9.60
2023-10-28T20:30:45.687Z,9.60
2023-10-28T20:33:18.080Z,9.60
2023-10-28T20:38:36.522Z,9.50
2023-10-28T20:41:08.982Z,9.50
2023-10-28T20:43:39.599Z,9.40
2023-10-28T20:46:06.676Z,9.40
2023-10-28T20:48:37.110Z,9.20
2023-10-28T20:51:11.656Z,9.20
2023-10-28T20:54:09.920Z,9.40
2023-10-28T20:56:43.148Z,9.30
2023-10-28T20:59:11.846Z,9.30
2023-10-28T21:01:43.998Z,9.30
2023-10-28T21:04:18.253Z,9.30
2023-10-28T21:06:48.106Z,9.30
2023-10-28T21:09:26.400Z,9.20
2023-10-28T21:11:54.890Z,9.30
2023-10-28T21:14:25.008Z,9.30
2023-10-28T21:16:54.978Z,9.20
2023-10-28T21:19:24.836Z,9.20
2023-10-28T21:21:55.949Z,9.30
2023-10-28T21:24:27.588Z,9.20
2023-10-28T21:26:59.817Z,9.20
2023-10-28T21:29:29.033Z,9.10
2023-10-28T21:32:02.097Z,9.10
2023-10-28T21:34:35.047Z,9.10
2023-10-28T21:37:03.490Z,9.10
2023-10-28T21:39:36.096Z,9.10
2023-10-28T21:42:05.808Z,9.10
2023-10-28T21:44:37.322Z,9.10
2023-10-28T21:47:04.777Z,9.10
2023-10-28T21:49:36.261Z,9.10
2023-10-28T21:52:06.277Z,8.90
2023-10-28T21:54:37.182Z,9.00
2023-10-28T21:57:15.994Z,9.00
2023-10-28T21:59:45.339Z,9.10
2023-10-28T22:02:20.461Z,9.00
2023-10-28T22:04:50.634Z,9.00
2023-10-28T22:07:25.213Z,9.10
2023-10-28T22:09:58.739Z,9.00
2023-10-28T22:12:33.714Z,9.00
2023-10-28T22:15:08.617Z,9.00
2023-10-28T22:17:38.287Z,9.00
2023-10-28T22:20:10.117Z,8.90
2023-10-28T22:22:39.671Z,8.90
2023-10-28T22:25:15.788Z,8.90
2023-10-28T22:27:43.114Z,8.90
2023-10-28T22:30:14.401Z,8.90
2023-10-28T22:32:50.479Z,8.80
2023-10-28T22:35:19.533Z,8.80
2023-10-28T22:37:49.324Z,8.70
2023-10-28T22:40:17.442Z,8.80
2023-10-28T22:42:48.841Z,8.70
2023-10-28T22:45:21.709Z,8.70
2023-10-28T22:47:51.287Z,8.70
2023-10-28T22:50:19.996Z,8.70
2023-10-28T22:52:49.742Z,8.60
2023-10-28T22:55:18.479Z,8.60
2023-10-28T22:57:46.146Z,8.60
2023-10-28T23:00:18.069Z,8.60
2023-10-28T23:02:47.279Z,8.60
2023-10-28T23:05:14.752Z,8.60
2023-10-28T23:07:43.361Z,8.60
2023-10-28T23:10:13.789Z,8.60
2023-10-28T23:12:42.029Z,8.60
2023-10-28T23:15:09.940Z,8.60
2023-10-28T23:17:39.514Z,8.50
2023-10-28T23:20:07.140Z,8.70
2023-10-28T23:22:41.682Z,8.50
2023-10-28T23:25:17.676Z,8.40
2023-10-28T23:27:47.788Z,8.50
2023-10-28T23:30:23.268Z,8.50
2023-10-28T23:32:56.658Z,8.40
2023-10-28T23:35:25.015Z,8.40
2023-10-28T23:37:51.791Z,8.40
2023-10-28T23:40:22.331Z,8.30
2023-10-28T23:42:50.715Z,8.30
2023-10-28T23:45:22.769Z,8.30
2023-10-28T23:47:51.458Z,8.30
2023-10-28T23:50:26.510Z,8.20
2023-10-28T23:52:55.293Z,8.20
2023-10-28T23:55:25.171Z,8.10
2023-10-28T23:57:59.582Z,8.10
